Time;durP1;ratioP1;P1;durP2;ratioP2;P2;SDS_P1;SDS_P2;PMS_P1;PMS_P2;Temp;Humidity;BMP_temperature;BMP_pressure;BME280_temperature;BME280_humidity;BME280_pressure;Samples;Min_cycle;Max_cycle;Signal;HPM_P1;HPM_P2
2021/12/31 00:01:03;;;;;;;0.90;0.90;;;;;;;;;;5012165;28;20478;-72
2021/12/31 00:03:29;;;;;;;1.70;0.63;;;;;;;;;;5010075;28;20444;-72
2021/12/31 00:05:58;;;;;;;0.70;0.70;;;;;;;;;;5010462;28;20443;-72
2021/12/31 00:08:23;;;;;;;1.17;1.07;;;;;;;;;;5009833;28;20440;-72
2021/12/31 00:10:54;;;;;;;1.90;0.60;;;;;;;;;;5011690;28;20490;-72
2021/12/31 00:13:20;;;;;;;0.57;0.57;;;;;;;;;;5009110;28;20865;-72
2021/12/31 00:15:46;;;;;;;1.83;0.70;;;;;;;;;;5011078;28;20433;-71
2021/12/31 00:18:12;;;;;;;4.20;0.97;;;;;;;;;;5010183;28;20954;-71
2021/12/31 00:20:40;;;;;;;3.53;1.07;;;;;;;;;;5010541;28;20432;-71
2021/12/31 00:23:12;;;;;;;1.30;0.70;;;;;;;;;;5009824;28;21090;-71
2021/12/31 00:25:40;;;;;;;0.50;0.50;;;;;;;;;;5011749;28;20474;-71
2021/12/31 00:28:06;;;;;;;0.70;0.70;;;;;;;;;;5009937;28;20444;-72
2021/12/31 00:30:32;;;;;;;1.23;0.70;;;;;;;;;;5011615;28;20489;-72
2021/12/31 00:32:59;;;;;;;1.60;0.60;;;;;;;;;;5010231;28;20486;-72
2021/12/31 00:35:25;;;;;;;1.47;0.60;;;;;;;;;;5011110;28;20432;-72
2021/12/31 00:37:51;;;;;;;0.90;0.90;;;;;;;;;;5011273;28;20431;-72
2021/12/31 00:40:17;;;;;;;1.73;0.83;;;;;;;;;;5011508;28;20935;-72
2021/12/31 00:42:44;;;;;;;0.80;0.80;;;;;;;;;;5011144;28;20436;-71
2021/12/31 00:45:11;;;;;;;0.97;0.97;;;;;;;;;;5006345;28;20441;-72
2021/12/31 00:47:37;;;;;;;1.37;0.70;;;;;;;;;;5010995;28;20523;-72
2021/12/31 00:50:04;;;;;;;4.20;0.67;;;;;;;;;;5010991;28;20453;-73
2021/12/31 00:52:30;;;;;;;3.30;2.03;;;;;;;;;;5009090;28;20527;-71
2021/12/31 00:54:55;;;;;;;2.60;1.27;;;;;;;;;;5001513;28;20518;-71
2021/12/31 00:57:21;;;;;;;1.17;1.17;;;;;;;;;;5010096;28;20444;-72
2021/12/31 00:59:48;;;;;;;0.80;0.80;;;;;;;;;;5010598;28;21023;-72
2021/12/31 01:02:16;;;;;;;1.10;1.10;;;;;;;;;;5009982;28;20441;-71
2021/12/31 01:04:42;;;;;;;0.97;0.97;;;;;;;;;;5010293;28;20436;-72
2021/12/31 01:07:08;;;;;;;1.30;1.30;;;;;;;;;;5011466;28;20916;-71
2021/12/31 01:09:34;;;;;;;0.73;0.73;;;;;;;;;;5012486;28;20455;-71
2021/12/31 01:12:01;;;;;;;1.10;1.10;;;;;;;;;;5009184;28;20495;-72
2021/12/31 01:17:00;;;;;;;6.23;1.07;;;;;;;;;;5010601;28;20873;-71
2021/12/31 01:21:53;;;;;;;3.73;0.73;;;;;;;;;;5011900;28;20523;-71
2021/12/31 01:24:19;;;;;;;3.50;0.90;;;;;;;;;;5011180;28;20840;-71
2021/12/31 01:26:46;;;;;;;1.10;1.00;;;;;;;;;;5011192;28;20447;-72
2021/12/31 01:29:12;;;;;;;1.57;0.90;;;;;;;;;;5011681;28;20486;-72
2021/12/31 01:31:38;;;;;;;1.70;0.77;;;;;;;;;;5011952;28;20460;-72
2021/12/31 01:34:04;;;;;;;1.07;0.90;;;;;;;;;;5010050;28;20432;-71
2021/12/31 01:36:30;;;;;;;1.30;1.20;;;;;;;;;;5008002;28;20454;-71
2021/12/31 01:38:56;;;;;;;1.33;1.33;;;;;;;;;;5010489;28;20436;-71
2021/12/31 01:41:22;;;;;;;1.80;1.40;;;;;;;;;;5010885;28;20440;-72
2021/12/31 01:43:48;;;;;;;1.90;0.83;;;;;;;;;;5010152;28;20478;-72
2021/12/31 01:46:14;;;;;;;0.90;0.90;;;;;;;;;;5009561;28;20967;-72
2021/12/31 01:51:22;;;;;;;1.20;1.17;;;;;;;;;;5011059;28;20991;-72
2021/12/31 01:53:48;;;;;;;0.90;0.90;;;;;;;;;;5009681;28;20436;-72
2021/12/31 01:56:15;;;;;;;1.00;0.90;;;;;;;;;;5008938;28;21731;-72
2021/12/31 01:58:42;;;;;;;1.27;1.27;;;;;;;;;;5009755;28;20486;-72
2021/12/31 02:01:08;;;;;;;0.90;0.90;;;;;;;;;;5011008;28;20474;-72
2021/12/31 02:03:37;;;;;;;0.80;0.80;;;;;;;;;;5010604;28;20523;-73
2021/12/31 02:06:03;;;;;;;0.90;0.90;;;;;;;;;;5010018;28;20475;-72
2021/12/31 02:08:30;;;;;;;0.80;0.80;;;;;;;;;;5009302;28;20527;-73
2021/12/31 02:10:56;;;;;;;1.27;0.80;;;;;;;;;;5010276;28;20436;-72
2021/12/31 02:13:22;;;;;;;1.13;1.13;;;;;;;;;;5009871;28;20456;-71
2021/12/31 02:15:48;;;;;;;5.10;1.20;;;;;;;;;;5010248;28;20987;-71
2021/12/31 02:18:14;;;;;;;1.87;1.67;;;;;;;;;;5010227;28;20582;-71
2021/12/31 02:20:45;;;;;;;1.97;1.70;;;;;;;;;;5011048;28;20566;-72
2021/12/31 02:23:18;;;;;;;1.97;1.90;;;;;;;;;;5010862;28;20444;-72
2021/12/31 02:25:44;;;;;;;2.30;2.30;;;;;;;;;;5009526;28;20520;-72
2021/12/31 02:28:10;;;;;;;2.40;1.80;;;;;;;;;;5010550;28;20436;-72
2021/12/31 02:30:36;;;;;;;2.03;1.47;;;;;;;;;;5009594;28;20531;-71
2021/12/31 02:33:03;;;;;;;1.27;1.27;;;;;;;;;;5009162;28;20594;-71
2021/12/31 02:35:29;;;;;;;2.10;2.00;;;;;;;;;;5010135;28;20593;-73
2021/12/31 02:37:56;;;;;;;1.87;1.73;;;;;;;;;;5009225;28;20527;-72
2021/12/31 02:40:23;;;;;;;1.53;1.53;;;;;;;;;;5009974;28;20950;-72
2021/12/31 02:42:50;;;;;;;1.80;1.70;;;;;;;;;;5009352;28;20451;-71
2021/12/31 02:45:16;;;;;;;2.50;2.40;;;;;;;;;;5007532;28;20440;-72
2021/12/31 02:47:45;;;;;;;2.30;2.20;;;;;;;;;;5009679;28;20519;-73
2021/12/31 02:50:16;;;;;;;2.83;1.93;;;;;;;;;;5009622;28;20431;-71
2021/12/31 02:52:42;;;;;;;2.10;1.70;;;;;;;;;;5008905;28;20483;-72
2021/12/31 02:55:10;;;;;;;2.10;2.00;;;;;;;;;;5009652;28;20860;-72
2021/12/31 02:57:38;;;;;;;2.40;1.43;;;;;;;;;;5008862;28;20444;-73
2021/12/31 03:00:04;;;;;;;2.30;1.80;;;;;;;;;;5009916;28;20470;-72
2021/12/31 03:02:30;;;;;;;8.63;1.50;;;;;;;;;;5009149;28;20435;-72
2021/12/31 03:04:58;;;;;;;2.63;1.30;;;;;;;;;;5007600;28;20815;-72
2021/12/31 03:07:25;;;;;;;13.73;1.10;;;;;;;;;;5009682;28;20452;-72
2021/12/31 03:09:52;;;;;;;1.23;1.23;;;;;;;;;;5009378;28;20439;-72
2021/12/31 03:12:19;;;;;;;2.47;1.10;;;;;;;;;;5008160;28;20575;-73
2021/12/31 03:14:45;;;;;;;1.00;1.00;;;;;;;;;;5008723;28;20444;-72
2021/12/31 03:17:13;;;;;;;1.37;1.27;;;;;;;;;;5009639;28;20468;-72
2021/12/31 03:19:39;;;;;;;0.90;0.90;;;;;;;;;;5008052;28;20444;-72
2021/12/31 03:22:05;;;;;;;0.90;0.90;;;;;;;;;;5010078;28;20510;-72
2021/12/31 03:24:31;;;;;;;0.90;0.90;;;;;;;;;;5008386;28;20466;-72
2021/12/31 03:26:57;;;;;;;1.03;1.03;;;;;;;;;;5010033;28;20459;-72
2021/12/31 03:29:23;;;;;;;1.53;0.83;;;;;;;;;;5009378;28;20435;-71
2021/12/31 03:31:49;;;;;;;1.23;1.13;;;;;;;;;;5009452;28;20511;-71
2021/12/31 03:34:15;;;;;;;0.97;0.90;;;;;;;;;;5008627;28;20424;-72
2021/12/31 03:36:42;;;;;;;1.53;1.30;;;;;;;;;;5009901;28;20432;-71
2021/12/31 03:39:08;;;;;;;4.20;1.10;;;;;;;;;;5009351;28;20848;-72
2021/12/31 03:41:34;;;;;;;0.87;0.87;;;;;;;;;;5008190;28;20471;-72
2021/12/31 03:44:00;;;;;;;1.37;0.90;;;;;;;;;;5007631;28;20433;-72
2021/12/31 03:46:26;;;;;;;1.00;1.00;;;;;;;;;;5008496;28;20431;-72
2021/12/31 03:48:52;;;;;;;0.90;0.90;;;;;;;;;;5008089;28;20937;-73
2021/12/31 03:51:18;;;;;;;1.23;0.77;;;;;;;;;;5009516;28;20479;-72
2021/12/31 03:53:44;;;;;;;3.50;0.80;;;;;;;;;;5009320;28;20517;-72
2021/12/31 03:56:10;;;;;;;0.70;0.70;;;;;;;;;;5009293;28;20932;-71
2021/12/31 03:58:36;;;;;;;0.67;0.67;;;;;;;;;;5009447;28;20474;-71
2021/12/31 04:01:02;;;;;;;2.67;1.10;;;;;;;;;;5008610;28;20522;-72
2021/12/31 04:03:28;;;;;;;4.40;0.93;;;;;;;;;;5007630;28;20527;-72
2021/12/31 04:05:54;;;;;;;0.90;0.90;;;;;;;;;;5007841;28;20531;-72
2021/12/31 04:08:20;;;;;;;1.00;1.00;;;;;;;;;;5009061;28;20463;-72
2021/12/31 04:10:46;;;;;;;2.63;0.90;;;;;;;;;;5008961;28;20519;-72
2021/12/31 04:13:12;;;;;;;1.10;1.00;;;;;;;;;;5009009;28;20884;-71
2021/12/31 04:15:38;;;;;;;0.80;0.80;;;;;;;;;;5008944;28;20924;-71
2021/12/31 04:18:04;;;;;;;1.03;1.03;;;;;;;;;;5008894;28;20446;-72
2021/12/31 04:23:01;;;;;;;1.20;1.10;;;;;;;;;;5008342;28;20494;-72
2021/12/31 04:25:27;;;;;;;1.33;1.00;;;;;;;;;;5008406;28;20450;-71
2021/12/31 04:27:53;;;;;;;1.00;1.00;;;;;;;;;;5008753;28;20444;-72
2021/12/31 04:30:19;;;;;;;1.07;1.07;;;;;;;;;;5009452;28;20448;-71
2021/12/31 04:32:45;;;;;;;2.10;0.90;;;;;;;;;;5010544;28;20992;-72
2021/12/31 04:35:11;;;;;;;1.23;0.93;;;;;;;;;;5011950;28;20514;-71
2021/12/31 04:37:39;;;;;;;0.70;0.70;;;;;;;;;;5011480;28;20439;-72
2021/12/31 04:40:06;;;;;;;1.47;1.47;;;;;;;;;;5012555;28;20446;-72
2021/12/31 04:42:32;;;;;;;1.53;0.90;;;;;;;;;;5011847;28;20443;-72
2021/12/31 04:44:58;;;;;;;1.03;1.00;;;;;;;;;;5012325;28;20436;-72
2021/12/31 04:47:24;;;;;;;1.70;1.10;;;;;;;;;;5010849;28;20516;-72
2021/12/31 04:49:50;;;;;;;0.83;0.83;;;;;;;;;;5011878;28;20915;-72
2021/12/31 04:52:16;;;;;;;2.90;0.80;;;;;;;;;;5011753;28;20983;-72
2021/12/31 04:54:42;;;;;;;2.17;2.00;;;;;;;;;;5011707;28;20474;-72
2021/12/31 04:57:08;;;;;;;1.43;1.43;;;;;;;;;;5012200;28;20447;-71
2021/12/31 04:59:34;;;;;;;0.80;0.80;;;;;;;;;;5012784;28;20428;-72
2021/12/31 05:02:00;;;;;;;0.80;0.70;;;;;;;;;;5010267;28;20461;-71
2021/12/31 05:04:26;;;;;;;0.63;0.63;;;;;;;;;;5011229;28;20432;-73
2021/12/31 05:06:52;;;;;;;0.73;0.73;;;;;;;;;;5012271;28;20444;-73
2021/12/31 05:09:18;;;;;;;1.67;1.57;;;;;;;;;;5011965;28;20428;-73
2021/12/31 05:11:45;;;;;;;1.47;1.47;;;;;;;;;;5010844;28;20629;-71
2021/12/31 05:14:11;;;;;;;2.50;2.20;;;;;;;;;;5010928;28;20432;-71
2021/12/31 05:16:37;;;;;;;1.10;1.10;;;;;;;;;;5012188;28;20451;-72
2021/12/31 05:19:04;;;;;;;3.10;1.23;;;;;;;;;;5010775;28;20437;-72
2021/12/31 05:21:30;;;;;;;1.20;1.20;;;;;;;;;;5011522;28;20436;-72
2021/12/31 05:23:56;;;;;;;4.13;1.17;;;;;;;;;;5010874;28;20432;-73
2021/12/31 05:26:22;;;;;;;1.13;1.13;;;;;;;;;;5011426;28;20524;-72
2021/12/31 05:28:48;;;;;;;1.30;1.20;;;;;;;;;;5012089;28;20439;-72
2021/12/31 05:31:14;;;;;;;1.43;1.20;;;;;;;;;;5011465;28;20467;-71
2021/12/31 05:33:40;;;;;;;1.90;1.20;;;;;;;;;;5010786;28;20444;-74
2021/12/31 05:36:06;;;;;;;0.87;0.87;;;;;;;;;;5010872;28;20440;-73
2021/12/31 05:38:32;;;;;;;6.33;1.00;;;;;;;;;;5011437;28;20431;-71
2021/12/31 05:40:58;;;;;;;0.87;0.87;;;;;;;;;;5012097;28;20420;-72
2021/12/31 05:43:24;;;;;;;7.83;0.97;;;;;;;;;;5010000;28;20447;-72
2021/12/31 05:45:50;;;;;;;0.90;0.90;;;;;;;;;;5010976;28;20431;-72
2021/12/31 05:48:16;;;;;;;1.10;1.10;;;;;;;;;;5011031;28;20921;-71
2021/12/31 05:50:42;;;;;;;0.73;0.73;;;;;;;;;;5011394;28;20432;-72
2021/12/31 05:53:08;;;;;;;0.97;0.97;;;;;;;;;;5011088;28;20491;-72
2021/12/31 05:55:34;;;;;;;7.63;1.53;;;;;;;;;;5011096;28;20430;-73
2021/12/31 05:58:02;;;;;;;1.10;1.10;;;;;;;;;;5009151;28;20436;-72
2021/12/31 06:00:28;;;;;;;0.60;0.60;;;;;;;;;;5009737;28;20467;-71
2021/12/31 06:02:54;;;;;;;3.57;1.13;;;;;;;;;;5007250;28;20494;-72
2021/12/31 06:05:20;;;;;;;0.80;0.80;;;;;;;;;;5009059;28;20808;-71
2021/12/31 06:07:46;;;;;;;0.70;0.70;;;;;;;;;;5010480;28;20450;-73
2021/12/31 06:10:12;;;;;;;0.80;0.80;;;;;;;;;;5011098;28;20861;-72
2021/12/31 06:12:38;;;;;;;0.93;0.70;;;;;;;;;;5010217;28;21003;-71
2021/12/31 06:15:08;;;;;;;1.67;0.90;;;;;;;;;;5009217;28;20444;-71
2021/12/31 06:17:34;;;;;;;0.80;0.80;;;;;;;;;;5010802;28;20493;-73
2021/12/31 06:20:00;;;;;;;1.23;1.20;;;;;;;;;;5009550;28;20828;-72
2021/12/31 06:22:26;;;;;;;2.80;2.60;;;;;;;;;;5008896;28;20448;-72
2021/12/31 06:24:52;;;;;;;1.20;1.20;;;;;;;;;;5009880;28;20443;-72
2021/12/31 06:27:19;;;;;;;1.27;1.27;;;;;;;;;;5010368;28;20444;-72
2021/12/31 06:29:45;;;;;;;2.10;2.10;;;;;;;;;;5010481;28;20903;-72
2021/12/31 06:32:11;;;;;;;2.10;2.10;;;;;;;;;;5009950;28;22003;-71
2021/12/31 06:34:37;;;;;;;2.07;1.90;;;;;;;;;;5010071;28;20535;-74
2021/12/31 06:37:03;;;;;;;2.63;2.53;;;;;;;;;;5010104;28;20441;-72
2021/12/31 06:39:29;;;;;;;3.00;2.87;;;;;;;;;;5010234;28;20432;-72
2021/12/31 06:41:55;;;;;;;2.50;2.40;;;;;;;;;;5010453;28;20440;-72
2021/12/31 06:44:21;;;;;;;2.90;2.80;;;;;;;;;;5003474;28;20445;-72
2021/12/31 06:46:47;;;;;;;3.40;3.30;;;;;;;;;;5009477;28;20436;-71
2021/12/31 06:49:13;;;;;;;4.23;4.03;;;;;;;;;;5005410;28;20539;-73
2021/12/31 06:51:39;;;;;;;3.50;3.40;;;;;;;;;;5009437;28;20480;-72
2021/12/31 06:54:05;;;;;;;4.87;4.47;;;;;;;;;;5008872;28;21083;-72
2021/12/31 06:56:31;;;;;;;4.87;4.57;;;;;;;;;;5009832;28;20506;-73
2021/12/31 06:58:57;;;;;;;5.23;4.83;;;;;;;;;;5009755;28;20765;-73
2021/12/31 07:01:24;;;;;;;6.37;5.80;;;;;;;;;;5009102;28;20479;-73
2021/12/31 07:03:50;;;;;;;6.07;5.63;;;;;;;;;;5008659;28;20424;-72
2021/12/31 07:06:16;;;;;;;5.40;5.00;;;;;;;;;;5009292;28;20490;-72
2021/12/31 07:08:42;;;;;;;10.03;4.93;;;;;;;;;;5009611;28;21524;-72
2021/12/31 07:11:08;;;;;;;6.00;5.00;;;;;;;;;;5007803;28;20532;-72
2021/12/31 07:13:35;;;;;;;4.70;4.47;;;;;;;;;;5009139;28;20472;-72
2021/12/31 07:16:01;;;;;;;4.50;4.30;;;;;;;;;;5008081;28;20530;-73
2021/12/31 07:18:27;;;;;;;3.77;3.67;;;;;;;;;;5008528;28;20444;-72
2021/12/31 07:20:53;;;;;;;3.50;3.40;;;;;;;;;;5010057;28;20843;-71
2021/12/31 07:23:20;;;;;;;3.40;3.30;;;;;;;;;;5009128;28;20423;-72
2021/12/31 07:25:47;;;;;;;7.60;2.90;;;;;;;;;;5009297;28;20428;-72
2021/12/31 07:28:14;;;;;;;3.30;2.63;;;;;;;;;;5009110;28;20485;-72
2021/12/31 07:30:40;;;;;;;2.70;2.60;;;;;;;;;;5008623;28;20490;-72
2021/12/31 07:33:06;;;;;;;2.40;2.40;;;;;;;;;;5008490;28;20480;-72
2021/12/31 07:35:32;;;;;;;2.23;2.23;;;;;;;;;;5007829;28;20440;-72
2021/12/31 07:38:00;;;;;;;3.40;3.10;;;;;;;;;;5009240;28;20498;-73
2021/12/31 07:40:38;;;;;;;5.83;4.93;;;;;;;;;;5007241;28;20523;-72
2021/12/31 07:43:05;;;;;;;2.47;2.47;;;;;;;;;;5007794;28;20815;-71
2021/12/31 07:45:31;;;;;;;1.87;1.87;;;;;;;;;;5008606;28;20420;-72
2021/12/31 07:47:57;;;;;;;14.77;11.50;;;;;;;;;;5008714;28;20992;-72
2021/12/31 07:50:23;;;;;;;6.57;6.10;;;;;;;;;;5008761;28;20579;-71
2021/12/31 07:52:49;;;;;;;5.73;5.33;;;;;;;;;;5007676;28;20858;-72
2021/12/31 07:55:14;;;;;;;5.47;5.00;;;;;;;;;;5007528;28;20459;-71
2021/12/31 07:57:40;;;;;;;14.23;5.70;;;;;;;;;;5007409;28;20520;-73
2021/12/31 08:00:07;;;;;;;4.93;4.50;;;;;;;;;;5008498;28;20471;-72
2021/12/31 08:02:33;;;;;;;4.33;4.13;;;;;;;;;;5008393;28;20446;-74
2021/12/31 08:04:59;;;;;;;4.43;4.33;;;;;;;;;;5008858;28;20776;-75
2021/12/31 08:07:25;;;;;;;4.70;4.50;;;;;;;;;;5009190;28;20534;-72
2021/12/31 08:09:51;;;;;;;7.73;5.30;;;;;;;;;;5012876;28;20904;-72
2021/12/31 08:12:17;;;;;;;4.13;3.83;;;;;;;;;;5012386;28;20480;-72
2021/12/31 08:14:43;;;;;;;3.13;3.03;;;;;;;;;;5010050;28;20443;-71
2021/12/31 08:17:09;;;;;;;4.83;4.30;;;;;;;;;;5011273;28;20439;-71
2021/12/31 08:19:35;;;;;;;4.43;4.13;;;;;;;;;;5012191;28;20466;-73
2021/12/31 08:22:01;;;;;;;4.70;4.40;;;;;;;;;;5010530;28;20425;-72
2021/12/31 08:24:27;;;;;;;9.87;5.20;;;;;;;;;;5009847;28;21466;-72
2021/12/31 08:26:52;;;;;;;6.03;5.53;;;;;;;;;;5012782;28;20979;-71
2021/12/31 08:29:18;;;;;;;4.73;4.43;;;;;;;;;;5011775;28;20467;-72
2021/12/31 08:31:45;;;;;;;5.13;4.83;;;;;;;;;;5010642;28;20566;-73
2021/12/31 08:34:11;;;;;;;4.20;4.00;;;;;;;;;;5009533;28;20467;-71
2021/12/31 08:36:37;;;;;;;3.80;3.67;;;;;;;;;;5009784;28;20444;-71
2021/12/31 08:39:04;;;;;;;4.70;4.50;;;;;;;;;;5011583;28;20526;-73
2021/12/31 08:41:30;;;;;;;3.83;3.60;;;;;;;;;;5011166;28;20932;-74
2021/12/31 08:43:56;;;;;;;3.03;3.03;;;;;;;;;;5011998;28;21014;-71
2021/12/31 08:46:23;;;;;;;3.20;3.10;;;;;;;;;;5012086;28;20428;-71
2021/12/31 08:48:49;;;;;;;2.10;2.10;;;;;;;;;;5011765;28;20478;-71
2021/12/31 08:51:15;;;;;;;2.73;2.73;;;;;;;;;;5011462;28;20556;-71
2021/12/31 08:53:41;;;;;;;3.47;3.27;;;;;;;;;;5010785;28;21265;-71
2021/12/31 08:56:08;;;;;;;2.10;2.10;;;;;;;;;;5012017;28;20431;-71
2021/12/31 08:58:35;;;;;;;2.10;2.10;;;;;;;;;;5009696;28;20497;-73
2021/12/31 09:01:01;;;;;;;2.63;2.63;;;;;;;;;;5010959;28;20479;-75
2021/12/31 09:03:27;;;;;;;2.87;2.77;;;;;;;;;;5009638;28;20446;-73
2021/12/31 09:05:53;;;;;;;2.60;2.60;;;;;;;;;;5009691;28;20494;-71
2021/12/31 09:08:18;;;;;;;7.37;6.80;;;;;;;;;;5011268;28;20476;-73
2021/12/31 09:10:44;;;;;;;2.70;2.70;;;;;;;;;;5010121;28;20952;-74
2021/12/31 09:13:11;;;;;;;3.47;3.40;;;;;;;;;;5011809;28;20890;-71
2021/12/31 09:15:37;;;;;;;2.37;2.27;;;;;;;;;;5010898;28;20424;-72
2021/12/31 09:18:03;;;;;;;2.40;2.40;;;;;;;;;;5011522;28;20430;-72
2021/12/31 09:20:29;;;;;;;3.30;3.17;;;;;;;;;;5011027;28;20432;-71
2021/12/31 09:22:56;;;;;;;3.33;3.23;;;;;;;;;;5010576;28;20432;-71
2021/12/31 09:25:23;;;;;;;3.67;3.47;;;;;;;;;;5010939;28;20523;-72
2021/12/31 09:27:49;;;;;;;6.10;5.60;;;;;;;;;;5011331;28;20428;-72
2021/12/31 09:30:15;;;;;;;3.00;3.00;;;;;;;;;;5009571;28;20485;-72
2021/12/31 09:32:41;;;;;;;3.47;3.37;;;;;;;;;;5011046;28;20476;-72
2021/12/31 09:35:07;;;;;;;2.80;2.80;;;;;;;;;;5010841;28;20432;-72
2021/12/31 09:37:33;;;;;;;3.20;3.00;;;;;;;;;;5009090;28;20439;-76
2021/12/31 09:40:00;;;;;;;2.57;2.57;;;;;;;;;;5008664;28;20448;-74
2021/12/31 09:42:25;;;;;;;3.07;2.87;;;;;;;;;;5004632;28;20424;-75
2021/12/31 09:44:52;;;;;;;4.17;3.97;;;;;;;;;;5010816;28;20455;-72
2021/12/31 09:47:18;;;;;;;3.40;3.30;;;;;;;;;;5009063;28;20428;-76
2021/12/31 09:49:44;;;;;;;3.50;3.30;;;;;;;;;;5007597;28;20444;-72
2021/12/31 09:52:13;;;;;;;3.53;3.43;;;;;;;;;;5010268;28;20476;-72
2021/12/31 09:54:43;;;;;;;3.13;3.13;;;;;;;;;;5011115;28;20428;-75
2021/12/31 09:57:13;;;;;;;2.67;2.47;;;;;;;;;;5008575;28;20976;-72
2021/12/31 09:59:40;;;;;;;10.50;9.40;;;;;;;;;;5008791;28;20436;-73
2021/12/31 10:02:07;;;;;;;13.43;12.13;;;;;;;;;;5006700;28;20968;-75
2021/12/31 10:04:50;;;;;;;2.07;1.97;;;;;;;;;;5007546;28;20429;-67
2021/12/31 10:07:20;;;;;;;1.20;1.20;;;;;;;;;;5010122;28;20427;-72
2021/12/31 10:10:01;;;;;;;0.90;0.90;;;;;;;;;;4998992;28;20476;-72
2021/12/31 10:12:46;;;;;;;2.47;2.40;;;;;;;;;;5010149;28;20495;-73
2021/12/31 10:15:12;;;;;;;2.03;2.03;;;;;;;;;;5008464;28;20992;-73
2021/12/31 10:17:38;;;;;;;2.30;2.30;;;;;;;;;;5009743;28;20482;-72
2021/12/31 10:20:05;;;;;;;1.70;1.70;;;;;;;;;;5009703;28;20845;-72
2021/12/31 10:22:30;;;;;;;2.70;2.60;;;;;;;;;;5007831;28;20789;-71
2021/12/31 10:24:57;;;;;;;1.43;1.43;;;;;;;;;;5009814;28;20438;-71
2021/12/31 10:27:24;;;;;;;2.10;2.10;;;;;;;;;;5009125;28;20440;-71
2021/12/31 10:29:59;;;;;;;1.97;1.97;;;;;;;;;;5008503;28;20430;-71
2021/12/31 10:32:29;;;;;;;1.30;1.30;;;;;;;;;;5009432;28;20488;-71
2021/12/31 10:35:15;;;;;;;1.40;1.40;;;;;;;;;;5008993;28;20943;-71
2021/12/31 10:37:51;;;;;;;1.93;1.93;;;;;;;;;;5008670;28;20486;-72
2021/12/31 10:40:30;;;;;;;2.07;2.07;;;;;;;;;;5009133;28;20436;-72
2021/12/31 10:43:11;;;;;;;2.60;2.60;;;;;;;;;;5010012;28;20431;-72
2021/12/31 10:45:53;;;;;;;2.00;2.00;;;;;;;;;;5009758;28;20427;-71
2021/12/31 10:48:19;;;;;;;1.97;1.97;;;;;;;;;;5009246;28;20495;-72
2021/12/31 10:50:51;;;;;;;2.00;2.00;;;;;;;;;;5009201;28;20523;-71
2021/12/31 10:53:32;;;;;;;1.60;1.60;;;;;;;;;;5009504;28;20491;-71
2021/12/31 10:56:05;;;;;;;1.37;1.37;;;;;;;;;;5008210;28;21294;-72
2021/12/31 10:58:31;;;;;;;1.63;1.63;;;;;;;;;;5009443;28;20961;-72
2021/12/31 11:00:59;;;;;;;1.50;1.50;;;;;;;;;;4973475;28;1054521;-71
2021/12/31 11:03:25;;;;;;;1.93;1.93;;;;;;;;;;5007903;28;20185;-71
2021/12/31 11:05:51;;;;;;;2.60;2.40;;;;;;;;;;5009940;28;20483;-72
2021/12/31 11:08:17;;;;;;;14.13;12.20;;;;;;;;;;5009973;28;20416;-71
2021/12/31 11:10:43;;;;;;;3.90;3.73;;;;;;;;;;5010340;28;20432;-71
2021/12/31 11:13:19;;;;;;;7.23;6.03;;;;;;;;;;5010113;28;20565;-71
2021/12/31 11:15:47;;;;;;;3.23;3.17;;;;;;;;;;5006219;28;20436;-71
2021/12/31 11:18:18;;;;;;;2.90;2.77;;;;;;;;;;5008864;28;20949;-72
2021/12/31 11:20:46;;;;;;;3.97;3.87;;;;;;;;;;5009012;28;20435;-71
2021/12/31 11:23:12;;;;;;;2.47;2.47;;;;;;;;;;5008103;28;20511;-71
2021/12/31 11:25:49;;;;;;;2.40;2.40;;;;;;;;;;5009757;28;20511;-72
2021/12/31 11:28:23;;;;;;;4.40;3.50;;;;;;;;;;5008953;28;20953;-71
2021/12/31 11:30:50;;;;;;;12.67;7.53;;;;;;;;;;5008844;28;20428;-71
2021/12/31 11:33:22;;;;;;;11.33;6.03;;;;;;;;;;5009528;28;20900;-71
2021/12/31 11:35:58;;;;;;;4.30;4.00;;;;;;;;;;5009925;28;20424;-71
2021/12/31 11:38:24;;;;;;;4.83;4.43;;;;;;;;;;5009105;28;20440;-71
2021/12/31 11:41:02;;;;;;;2.60;2.50;;;;;;;;;;5009272;28;20427;-72
2021/12/31 11:43:29;;;;;;;2.90;2.90;;;;;;;;;;5009717;28;20633;-72
2021/12/31 11:46:11;;;;;;;3.37;3.27;;;;;;;;;;5009944;28;20431;-71
2021/12/31 11:48:47;;;;;;;3.57;3.47;;;;;;;;;;5009172;28;20470;-72
2021/12/31 11:51:13;;;;;;;2.97;2.90;;;;;;;;;;5009862;28;20451;-71
2021/12/31 11:53:57;;;;;;;3.53;3.43;;;;;;;;;;5008847;28;20436;-71
2021/12/31 11:56:32;;;;;;;3.80;3.70;;;;;;;;;;5008465;28;20782;-71
2021/12/31 11:58:58;;;;;;;4.20;4.00;;;;;;;;;;5009525;28;20416;-71
2021/12/31 12:01:36;;;;;;;2.93;2.83;;;;;;;;;;5007798;28;20483;-71
2021/12/31 12:04:21;;;;;;;3.80;3.70;;;;;;;;;;5009475;28;20869;-71
2021/12/31 12:06:58;;;;;;;6.30;5.80;;;;;;;;;;5008919;28;20442;-71
2021/12/31 12:09:25;;;;;;;3.20;3.10;;;;;;;;;;5009243;28;20424;-71
2021/12/31 12:12:03;;;;;;;3.77;3.57;;;;;;;;;;5009462;28;20479;-71
2021/12/31 12:14:32;;;;;;;3.47;3.40;;;;;;;;;;5008256;28;20440;-71
2021/12/31 12:16:59;;;;;;;6.43;6.00;;;;;;;;;;5009440;28;20442;-71
2021/12/31 12:19:43;;;;;;;5.73;5.43;;;;;;;;;;5009290;28;20516;-71
2021/12/31 12:22:09;;;;;;;5.33;5.03;;;;;;;;;;5007796;28;20432;-71
2021/12/31 12:24:35;;;;;;;7.83;6.17;;;;;;;;;;5009290;28;20800;-71
2021/12/31 12:27:02;;;;;;;5.90;5.50;;;;;;;;;;5009156;28;20420;-71
2021/12/31 12:29:28;;;;;;;4.07;3.93;;;;;;;;;;5009196;28;20915;-71
2021/12/31 12:32:07;;;;;;;7.47;3.73;;;;;;;;;;5009100;28;21031;-71
2021/12/31 12:34:33;;;;;;;3.77;3.67;;;;;;;;;;5009492;28;20787;-72
2021/12/31 12:36:59;;;;;;;3.10;3.10;;;;;;;;;;5009686;28;20913;-71
2021/12/31 12:39:25;;;;;;;3.70;3.60;;;;;;;;;;5008949;28;20428;-71
2021/12/31 12:41:51;;;;;;;3.53;3.27;;;;;;;;;;5008849;28;20841;-71
2021/12/31 12:44:17;;;;;;;3.67;3.57;;;;;;;;;;5008993;28;20431;-71
2021/12/31 12:46:57;;;;;;;4.13;3.93;;;;;;;;;;5009101;28;20420;-71
2021/12/31 12:49:26;;;;;;;4.33;4.13;;;;;;;;;;5008918;28;20432;-71
2021/12/31 12:51:54;;;;;;;5.13;4.90;;;;;;;;;;5008800;28;20468;-71
2021/12/31 12:54:22;;;;;;;4.73;4.53;;;;;;;;;;5012166;28;20432;-71
2021/12/31 12:56:49;;;;;;;8.83;4.23;;;;;;;;;;5011292;28;20456;-71
2021/12/31 12:59:22;;;;;;;4.30;4.00;;;;;;;;;;5012336;28;20511;-71
2021/12/31 13:01:52;;;;;;;5.47;4.47;;;;;;;;;;5011464;28;20482;-72
2021/12/31 13:04:18;;;;;;;6.27;4.67;;;;;;;;;;5011360;28;20469;-71
2021/12/31 13:06:46;;;;;;;5.50;5.20;;;;;;;;;;5012619;28;20790;-71
2021/12/31 13:09:15;;;;;;;5.33;4.93;;;;;;;;;;5012169;28;20458;-71
2021/12/31 13:11:41;;;;;;;9.03;6.00;;;;;;;;;;5011863;28;20495;-71
2021/12/31 13:14:34;;;;;;;3.90;3.70;;;;;;;;;;5012169;28;20466;-71
2021/12/31 13:17:00;;;;;;;3.67;3.57;;;;;;;;;;5010184;28;20432;-71
2021/12/31 13:19:30;;;;;;;3.80;3.70;;;;;;;;;;5011802;28;20500;-72
2021/12/31 13:22:14;;;;;;;2.77;2.70;;;;;;;;;;5012010;28;20947;-71
2021/12/31 13:24:41;;;;;;;3.43;3.30;;;;;;;;;;5011930;28;20424;-71
2021/12/31 13:27:10;;;;;;;2.93;2.73;;;;;;;;;;5011892;28;20440;-72
2021/12/31 13:29:37;;;;;;;3.00;3.00;;;;;;;;;;5011725;28;20420;-71
2021/12/31 13:32:09;;;;;;;3.10;3.00;;;;;;;;;;5011395;28;20510;-72
2021/12/31 13:34:39;;;;;;;2.80;2.80;;;;;;;;;;5010697;28;20452;-71
2021/12/31 13:37:05;;;;;;;3.63;2.67;;;;;;;;;;5010779;28;20432;-71
2021/12/31 13:39:32;;;;;;;2.57;2.47;;;;;;;;;;5011625;28;21000;-71
2021/12/31 13:41:59;;;;;;;1.10;1.10;;;;;;;;;;5011770;28;20935;-71
2021/12/31 13:44:32;;;;;;;2.23;0.80;;;;;;;;;;5011573;28;20986;-72
2021/12/31 13:47:10;;;;;;;0.90;0.90;;;;;;;;;;5011669;28;20983;-71
2021/12/31 13:49:38;;;;;;;2.10;0.70;;;;;;;;;;5011233;28;20432;-71
2021/12/31 13:52:24;;;;;;;0.80;0.80;;;;;;;;;;5011627;28;20517;-71
2021/12/31 13:54:55;;;;;;;0.70;0.70;;;;;;;;;;4994143;28;20967;-71
2021/12/31 13:57:25;;;;;;;0.60;0.60;;;;;;;;;;5011701;28;20831;-71
2021/12/31 13:59:52;;;;;;;0.90;0.90;;;;;;;;;;5010908;28;20468;-71
2021/12/31 14:02:28;;;;;;;0.50;0.50;;;;;;;;;;5011581;28;20425;-71
2021/12/31 14:04:54;;;;;;;0.70;0.70;;;;;;;;;;5008759;28;20790;-71
2021/12/31 14:07:32;;;;;;;1.20;1.20;;;;;;;;;;5011290;28;20474;-71
2021/12/31 14:09:59;;;;;;;0.60;0.60;;;;;;;;;;5010842;28;20481;-71
2021/12/31 14:12:25;;;;;;;0.70;0.70;;;;;;;;;;5010990;28;20483;-72
2021/12/31 14:14:51;;;;;;;2.77;0.60;;;;;;;;;;5011337;28;20427;-71
2021/12/31 14:17:17;;;;;;;2.03;0.83;;;;;;;;;;5011130;28;20432;-71
2021/12/31 14:19:43;;;;;;;0.70;0.70;;;;;;;;;;5010965;28;20885;-72
2021/12/31 14:22:10;;;;;;;0.80;0.80;;;;;;;;;;5011131;28;20428;-71
2021/12/31 14:24:36;;;;;;;0.60;0.60;;;;;;;;;;5010540;28;20443;-71
2021/12/31 14:27:03;;;;;;;0.80;0.80;;;;;;;;;;5010984;28;20932;-72
2021/12/31 14:29:29;;;;;;;0.40;0.40;;;;;;;;;;5010164;28;20466;-71
2021/12/31 14:31:56;;;;;;;1.23;1.13;;;;;;;;;;5010674;28;20474;-71
2021/12/31 14:34:27;;;;;;;0.70;0.70;;;;;;;;;;5010852;28;20443;-71
2021/12/31 14:36:53;;;;;;;1.13;1.13;;;;;;;;;;5010896;28;20415;-71
2021/12/31 14:39:20;;;;;;;0.77;0.77;;;;;;;;;;5010668;28;20470;-71
2021/12/31 14:41:46;;;;;;;4.20;1.47;;;;;;;;;;5011005;28;20439;-71
2021/12/31 14:44:12;;;;;;;1.30;1.30;;;;;;;;;;5010260;28;20428;-71
2021/12/31 14:46:37;;;;;;;1.33;1.27;;;;;;;;;;5009255;28;20430;-71
2021/12/31 14:49:04;;;;;;;1.13;0.87;;;;;;;;;;5008830;28;20428;-71
2021/12/31 14:51:30;;;;;;;1.10;1.00;;;;;;;;;;5010371;28;20764;-71
2021/12/31 14:53:56;;;;;;;1.63;1.30;;;;;;;;;;5010301;28;20494;-71
2021/12/31 14:56:22;;;;;;;1.00;1.00;;;;;;;;;;5010385;28;20793;-71